createdAt,value
2018-06-22T00:01:53.830Z,1.80
2018-06-22T00:04:23.361Z,2.50
2018-06-22T00:06:53.775Z,1.97
2018-06-22T00:09:23.241Z,1.87
2018-06-22T00:11:52.688Z,2.23
2018-06-22T00:14:22.678Z,2.10
2018-06-22T00:16:52.192Z,2.20
2018-06-22T00:19:21.698Z,2.27
2018-06-22T00:21:51.976Z,2.43
2018-06-22T00:24:21.424Z,2.23
2018-06-22T00:26:50.898Z,2.07
2018-06-22T00:29:22.108Z,1.90
2018-06-22T00:31:51.580Z,2.33
2018-06-22T00:34:21.767Z,2.27
2018-06-22T00:36:51.174Z,2.07
2018-06-22T00:39:20.659Z,2.00
2018-06-22T00:41:50.871Z,2.30
2018-06-22T00:44:20.327Z,2.40
2018-06-22T00:46:49.802Z,2.10
2018-06-22T00:49:20.488Z,2.70
2018-06-22T00:51:49.995Z,2.77
2018-06-22T00:54:19.464Z,2.50
2018-06-22T00:56:50.025Z,2.07
2018-06-22T00:59:19.511Z,2.50
2018-06-22T01:01:48.978Z,2.30
2018-06-22T01:04:19.147Z,2.00
2018-06-22T01:06:48.609Z,1.93
2018-06-22T01:09:18.075Z,3.10
2018-06-22T01:11:48.016Z,2.83
2018-06-22T01:14:17.543Z,2.63
2018-06-22T01:16:46.981Z,2.17
2018-06-22T01:19:17.330Z,2.37
2018-06-22T01:21:47.549Z,2.67
2018-06-22T01:24:18.085Z,2.80
2018-06-22T01:26:47.565Z,2.50
2018-06-22T01:29:22.810Z,2.50
2018-06-22T01:31:53.077Z,2.40
2018-06-22T01:34:23.287Z,2.60
2018-06-22T01:36:52.753Z,2.60
2018-06-22T01:39:22.220Z,2.30
2018-06-22T01:41:52.866Z,2.47
2018-06-22T01:44:23.126Z,2.40
2018-06-22T01:46:54.049Z,2.47
2018-06-22T01:49:23.477Z,2.40
2018-06-22T01:51:52.976Z,2.97
2018-06-22T01:54:23.189Z,2.63
2018-06-22T01:56:52.622Z,3.03
2018-06-22T01:59:22.082Z,2.77
2018-06-22T02:01:52.103Z,2.80
2018-06-22T02:04:21.509Z,2.23
2018-06-22T02:06:51.917Z,2.73
2018-06-22T02:09:22.875Z,2.70
2018-06-22T02:11:53.288Z,2.10
2018-06-22T02:14:22.762Z,2.27
2018-06-22T02:16:52.203Z,2.70
2018-06-22T02:19:22.407Z,2.93
2018-06-22T02:21:51.891Z,2.00
2018-06-22T02:24:21.383Z,2.60
2018-06-22T02:26:51.073Z,2.80
2018-06-22T02:29:20.227Z,2.33
2018-06-22T02:31:50.402Z,2.53
2018-06-22T02:34:21.344Z,3.33
2018-06-22T02:36:50.857Z,2.83
2018-06-22T02:39:20.326Z,2.40
2018-06-22T02:41:51.992Z,2.80
2018-06-22T02:44:21.563Z,2.93
2018-06-22T02:46:51.880Z,2.37
2018-06-22T02:49:21.480Z,2.63
2018-06-22T02:51:50.961Z,2.23
2018-06-22T02:54:21.283Z,2.43
2018-06-22T02:56:51.330Z,2.90
2018-06-22T02:59:22.240Z,3.37
2018-06-22T03:01:52.061Z,3.80
2018-06-22T03:04:21.910Z,3.03
2018-06-22T03:06:52.171Z,3.27
2018-06-22T03:09:21.833Z,3.23
2018-06-22T03:11:51.950Z,3.00
2018-06-22T03:14:21.417Z,3.20
2018-06-22T03:16:50.873Z,2.93
2018-06-22T03:19:20.452Z,3.37
2018-06-22T03:21:50.606Z,3.23
2018-06-22T03:24:20.038Z,3.00
2018-06-22T03:26:49.532Z,3.50
2018-06-22T03:29:22.772Z,2.83
2018-06-22T03:31:53.289Z,3.90
2018-06-22T03:34:23.251Z,3.27
2018-06-22T03:36:52.349Z,2.50
2018-06-22T03:39:21.742Z,3.23
2018-06-22T03:41:51.676Z,2.80
2018-06-22T03:44:21.150Z,3.20
2018-06-22T03:46:50.638Z,2.90
2018-06-22T03:49:21.029Z,2.90
2018-06-22T03:51:50.507Z,2.90
2018-06-22T03:54:19.945Z,3.10
2018-06-22T03:56:50.034Z,2.67
2018-06-22T03:59:19.461Z,2.40
2018-06-22T04:01:48.971Z,2.27
2018-06-22T04:04:19.113Z,2.40
2018-06-22T04:06:48.545Z,2.20
2018-06-22T04:09:18.005Z,2.67
2018-06-22T04:11:48.140Z,2.10
2018-06-22T04:14:17.250Z,2.33
2018-06-22T04:16:46.928Z,2.10
2018-06-22T04:19:16.937Z,2.60
2018-06-22T04:21:46.416Z,2.87
2018-06-22T04:24:16.643Z,3.00
2018-06-22T04:26:47.553Z,3.13
2018-06-22T04:29:18.624Z,3.03
2018-06-22T04:31:48.731Z,2.93
2018-06-22T04:34:18.998Z,2.43
2018-06-22T04:36:49.754Z,2.30
2018-06-22T04:39:19.260Z,2.67
2018-06-22T04:41:48.735Z,2.13
2018-06-22T04:44:18.986Z,2.70
2018-06-22T04:46:48.485Z,3.03
2018-06-22T04:49:18.201Z,2.70
2018-06-22T04:51:47.660Z,2.57
2018-06-22T04:54:18.163Z,2.23
2018-06-22T04:56:47.660Z,2.10
2018-06-22T04:59:17.133Z,2.50
2018-06-22T05:01:46.577Z,2.63
2018-06-22T05:04:15.991Z,2.50
2018-06-22T05:06:46.053Z,2.60
2018-06-22T05:09:15.549Z,2.50
2018-06-22T05:11:45.101Z,2.20
2018-06-22T05:14:15.382Z,2.77
2018-06-22T05:16:44.920Z,2.47
2018-06-22T05:19:14.718Z,2.40
2018-06-22T05:21:45.048Z,2.97
2018-06-22T05:24:14.128Z,2.37
2018-06-22T05:26:43.457Z,2.53
2018-06-22T05:29:13.293Z,2.70
2018-06-22T05:31:43.117Z,2.90
2018-06-22T05:34:12.673Z,3.10
2018-06-22T05:36:44.264Z,3.07
2018-06-22T05:39:13.996Z,2.67
2018-06-22T05:41:43.925Z,2.60
2018-06-22T05:44:15.109Z,2.70
2018-06-22T05:46:44.716Z,3.07
2018-06-22T05:49:15.217Z,3.00
2018-06-22T05:51:44.724Z,2.80
2018-06-22T05:54:14.378Z,2.73
2018-06-22T05:56:43.968Z,2.77
2018-06-22T05:59:14.338Z,2.90
2018-06-22T06:01:43.839Z,2.93
2018-06-22T06:04:12.999Z,3.33
2018-06-22T06:06:43.279Z,3.00
2018-06-22T06:09:13.011Z,2.60
2018-06-22T06:11:43.315Z,3.00
2018-06-22T06:14:12.794Z,3.07
2018-06-22T06:16:42.267Z,2.83
2018-06-22T06:19:12.143Z,2.97
2018-06-22T06:21:41.650Z,4.10
2018-06-22T06:24:11.247Z,3.10
2018-06-22T06:26:41.454Z,3.33
2018-06-22T06:29:10.975Z,3.47
2018-06-22T06:31:40.451Z,4.10
2018-06-22T06:34:10.930Z,3.00
2018-06-22T06:36:40.374Z,3.33
2018-06-22T06:39:10.544Z,3.43
2018-06-22T06:41:40.538Z,3.90
2018-06-22T06:44:10.061Z,4.10
2018-06-22T06:46:39.532Z,4.10
2018-06-22T06:49:09.659Z,4.43
2018-06-22T06:51:39.202Z,4.70
2018-06-22T06:54:08.630Z,3.70
2018-06-22T06:56:39.071Z,3.80
2018-06-22T06:59:08.616Z,4.50
2018-06-22T07:01:39.332Z,4.03
2018-06-22T07:04:08.752Z,4.63
2018-06-22T07:06:38.864Z,4.37
2018-06-22T07:09:09.094Z,4.40
2018-06-22T07:11:39.112Z,4.40
2018-06-22T07:14:08.551Z,4.40
2018-06-22T07:16:38.328Z,4.17
2018-06-22T07:19:08.622Z,3.90
2018-06-22T07:21:38.081Z,4.20
2018-06-22T07:24:07.560Z,3.90
2018-06-22T07:26:36.979Z,3.97
2018-06-22T07:29:07.597Z,3.70
2018-06-22T07:31:37.038Z,4.07
2018-06-22T07:34:06.236Z,4.17
2018-06-22T07:36:36.172Z,4.13
2018-06-22T07:39:09.520Z,4.03
2018-06-22T07:41:39.661Z,3.40
2018-06-22T07:44:09.503Z,3.90
2018-06-22T07:46:39.856Z,4.17
2018-06-22T07:49:09.297Z,4.07
2018-06-22T07:51:38.721Z,3.97
2018-06-22T07:54:08.173Z,4.23
2018-06-22T07:56:38.861Z,4.03
2018-06-22T07:59:08.340Z,3.50
2018-06-22T08:01:38.662Z,4.20
2018-06-22T08:04:08.073Z,4.40
2018-06-22T08:06:37.533Z,3.50
2018-06-22T08:09:08.976Z,4.00
2018-06-22T08:11:38.501Z,4.20
2018-06-22T08:14:08.144Z,3.67
2018-06-22T08:16:38.629Z,3.90
2018-06-22T08:19:08.119Z,4.20
2018-06-22T08:21:37.555Z,3.87
2018-06-22T08:24:07.047Z,4.10
2018-06-22T08:26:37.055Z,4.30
2018-06-22T08:29:06.831Z,3.77
2018-06-22T08:31:36.615Z,4.00
2018-06-22T08:34:06.882Z,3.70
2018-06-22T08:36:36.665Z,3.77
2018-06-22T08:39:10.442Z,3.83
2018-06-22T08:41:40.478Z,4.20
2018-06-22T08:44:11.072Z,4.00
2018-06-22T08:46:40.561Z,3.93
2018-06-22T08:49:10.035Z,4.63
2018-06-22T08:51:40.128Z,4.10
2018-06-22T08:54:09.784Z,4.47
2018-06-22T08:56:39.216Z,3.90
2018-06-22T08:59:09.612Z,3.60
2018-06-22T09:01:39.100Z,3.83
2018-06-22T09:04:08.566Z,3.60
2018-06-22T09:06:38.846Z,3.87
2018-06-22T09:09:08.605Z,3.90
2018-06-22T09:11:38.994Z,3.37
2018-06-22T09:14:08.424Z,3.60
2018-06-22T09:16:37.844Z,4.47
2018-06-22T09:19:07.997Z,3.77
2018-06-22T09:21:37.760Z,3.23
2018-06-22T09:24:07.205Z,3.40
2018-06-22T09:26:37.501Z,3.30
2018-06-22T09:29:07.068Z,3.50
2018-06-22T09:31:36.819Z,3.40
2018-06-22T09:34:06.799Z,3.40
2018-06-22T09:36:36.271Z,3.50
2018-06-22T09:39:08.251Z,3.67
2018-06-22T09:41:38.569Z,3.83
2018-06-22T09:44:08.722Z,3.63
2018-06-22T09:46:38.196Z,3.63
2018-06-22T09:49:07.670Z,3.10
2018-06-22T09:51:37.584Z,3.23
2018-06-22T09:54:07.080Z,3.20
2018-06-22T09:56:36.566Z,3.70
2018-06-22T09:59:06.912Z,3.30
2018-06-22T10:01:36.404Z,3.20
2018-06-22T10:04:06.040Z,2.67
2018-06-22T10:06:37.172Z,3.10
2018-06-22T10:09:09.608Z,3.13
2018-06-22T10:11:39.961Z,2.80
2018-06-22T10:14:09.811Z,3.03
2018-06-22T10:16:39.254Z,3.00
2018-06-22T10:19:09.115Z,2.83
2018-06-22T10:21:38.636Z,2.90
2018-06-22T10:24:08.158Z,3.03
2018-06-22T10:26:37.552Z,3.27
2018-06-22T10:29:08.082Z,2.93
2018-06-22T10:31:37.571Z,3.33
2018-06-22T10:34:06.977Z,3.13
2018-06-22T10:36:36.711Z,3.40
2018-06-22T10:39:10.266Z,3.30
2018-06-22T10:41:41.179Z,2.87
2018-06-22T10:44:11.023Z,2.60
2018-06-22T10:46:42.017Z,4.20
2018-06-22T10:49:11.513Z,3.27
2018-06-22T10:51:41.078Z,3.27
2018-06-22T10:54:11.411Z,3.40
2018-06-22T10:56:40.975Z,3.60
2018-06-22T10:59:10.507Z,3.33
2018-06-22T11:01:40.500Z,3.37
2018-06-22T11:04:10.042Z,3.70
2018-06-22T11:06:39.650Z,3.00
2018-06-22T11:09:12.613Z,2.93
2018-06-22T11:11:42.088Z,3.20
2018-06-22T11:14:11.550Z,3.40
2018-06-22T11:16:41.993Z,3.10
2018-06-22T11:19:11.403Z,2.60
2018-06-22T11:21:41.287Z,3.17
2018-06-22T11:24:10.832Z,3.00
2018-06-22T11:26:40.289Z,3.20
2018-06-22T11:29:10.201Z,2.97
2018-06-22T11:31:39.663Z,2.67
2018-06-22T11:34:09.142Z,3.00
2018-06-22T11:36:38.224Z,3.00
2018-06-22T11:39:10.774Z,3.13
2018-06-22T11:41:41.906Z,2.80
2018-06-22T11:44:12.198Z,2.70
2018-06-22T11:46:41.719Z,2.80
2018-06-22T11:49:11.227Z,2.13
2018-06-22T11:51:41.399Z,3.10
2018-06-22T11:54:10.922Z,2.80
2018-06-22T11:56:40.447Z,2.70
2018-06-22T11:59:10.425Z,2.40
2018-06-22T12:01:39.458Z,2.97
2018-06-22T12:04:08.793Z,2.60
2018-06-22T12:06:38.293Z,2.20
2018-06-22T12:09:11.507Z,2.63
2018-06-22T12:11:41.755Z,2.87
2018-06-22T12:14:11.542Z,2.87
2018-06-22T12:16:42.019Z,2.60
2018-06-22T12:19:11.679Z,2.20
2018-06-22T12:21:41.059Z,2.53
2018-06-22T12:24:11.247Z,2.10
2018-06-22T12:26:41.466Z,2.13
2018-06-22T12:29:11.594Z,2.07
2018-06-22T12:31:43.122Z,2.83
2018-06-22T12:34:13.632Z,2.37
2018-06-22T12:36:43.113Z,2.57
2018-06-22T12:39:15.016Z,2.20
2018-06-22T12:41:45.539Z,2.30
2018-06-22T12:44:15.568Z,2.13
2018-06-22T12:46:45.060Z,1.87
2018-06-22T12:49:14.509Z,2.00
2018-06-22T12:51:44.806Z,2.10
2018-06-22T12:54:14.250Z,1.83
2018-06-22T12:56:43.717Z,1.80
2018-06-22T12:59:14.061Z,1.87
2018-06-22T13:01:43.617Z,2.00
2018-06-22T13:04:15.212Z,1.90
2018-06-22T13:06:45.126Z,1.70
2018-06-22T13:09:14.674Z,2.17
2018-06-22T13:11:44.552Z,1.97
2018-06-22T13:14:14.018Z,1.83
2018-06-22T13:16:43.545Z,2.00
2018-06-22T13:19:12.983Z,1.60
2018-06-22T13:21:51.850Z,1.70
2018-06-22T13:24:22.450Z,1.87
2018-06-22T13:26:52.439Z,2.20
2018-06-22T13:29:21.984Z,1.70
2018-06-22T13:31:51.468Z,2.23
2018-06-22T13:34:21.512Z,1.77
2018-06-22T13:36:51.133Z,1.60
2018-06-22T13:39:23.469Z,1.90
2018-06-22T13:41:53.235Z,2.10
2018-06-22T13:44:22.725Z,1.90
2018-06-22T13:46:53.035Z,2.27
2018-06-22T13:49:22.543Z,1.93
2018-06-22T13:51:52.072Z,2.20
2018-06-22T13:54:22.279Z,2.00
2018-06-22T13:56:51.800Z,1.60
2018-06-22T13:59:21.202Z,1.87
2018-06-22T14:01:51.127Z,2.17
2018-06-22T14:04:25.747Z,1.73
2018-06-22T14:06:56.153Z,2.23
2018-06-22T14:09:26.140Z,2.13
2018-06-22T14:11:55.126Z,2.00
2018-06-22T14:14:24.476Z,2.03
2018-06-22T14:16:55.057Z,1.90
2018-06-22T14:19:24.596Z,1.60
2018-06-22T14:21:54.091Z,1.67
2018-06-22T14:24:25.289Z,1.70
2018-06-22T14:26:54.814Z,1.87
2018-06-22T14:29:24.362Z,1.67
2018-06-22T14:31:55.132Z,1.70
2018-06-22T14:34:24.677Z,1.80
2018-06-22T14:36:54.199Z,2.20
2018-06-22T14:39:25.401Z,1.83
2018-06-22T14:41:54.843Z,3.83
2018-06-22T14:44:24.332Z,2.20
2018-06-22T14:46:54.184Z,2.10
2018-06-22T14:49:23.655Z,2.10
2018-06-22T14:51:59.259Z,2.13
2018-06-22T14:54:33.931Z,2.07
2018-06-22T14:57:09.687Z,1.87
2018-06-22T14:59:44.319Z,1.90
2018-06-22T15:02:19.840Z,1.90
2018-06-22T15:04:54.545Z,2.10
2018-06-22T15:07:29.987Z,1.83
2018-06-22T15:09:59.527Z,2.07
2018-06-22T15:12:28.607Z,1.90
2018-06-22T15:14:58.451Z,2.27
2018-06-22T15:17:27.982Z,1.90
2018-06-22T15:19:57.584Z,2.07
2018-06-22T15:22:28.149Z,2.20
2018-06-22T15:24:57.601Z,2.30
2018-06-22T15:27:27.077Z,2.00
2018-06-22T15:29:57.033Z,2.47
2018-06-22T15:32:26.533Z,2.83
2018-06-22T15:35:01.949Z,2.20
2018-06-22T15:37:36.742Z,2.23
2018-06-22T15:41:11.447Z,1.80
2018-06-22T15:43:46.255Z,2.13
2018-06-22T15:46:21.382Z,1.87
2018-06-22T15:48:56.122Z,2.17
2018-06-22T15:51:31.587Z,2.20
2018-06-22T15:54:06.435Z,1.90
2018-06-22T15:56:37.122Z,2.00
2018-06-22T15:59:06.611Z,2.03
2018-06-22T16:01:36.214Z,1.80
2018-06-22T16:04:11.115Z,1.80
2018-06-22T16:06:41.465Z,1.87
2018-06-22T16:09:11.721Z,2.20
2018-06-22T16:11:41.716Z,1.87
2018-06-22T16:14:16.475Z,2.00
2018-06-22T16:16:51.822Z,2.50
2018-06-22T16:19:26.768Z,2.30
2018-06-22T16:22:02.826Z,2.27
2018-06-22T16:24:37.588Z,3.60
2018-06-22T16:27:10.348Z,2.03
2018-06-22T16:29:39.805Z,2.43
2018-06-22T16:32:09.446Z,1.97
2018-06-22T16:34:39.353Z,1.73
2018-06-22T16:37:08.820Z,2.10
2018-06-22T16:39:38.257Z,2.47
2018-06-22T16:42:08.829Z,2.20
2018-06-22T16:44:38.287Z,1.93
2018-06-22T16:47:07.802Z,2.10
2018-06-22T16:49:38.523Z,2.43
2018-06-22T16:52:08.016Z,1.67
2018-06-22T16:54:37.501Z,1.80
2018-06-22T16:57:07.826Z,2.20
2018-06-22T16:59:37.373Z,4.27
2018-06-22T17:02:07.045Z,2.07
2018-06-22T17:04:37.302Z,2.13
2018-06-22T17:07:12.272Z,2.10
2018-06-22T17:09:47.348Z,2.00
2018-06-22T17:12:21.995Z,2.27
2018-06-22T17:14:56.644Z,2.17
2018-06-22T17:18:33.812Z,1.83
2018-06-22T17:21:03.308Z,2.00
2018-06-22T17:23:32.766Z,2.00
2018-06-22T17:26:02.759Z,2.07
2018-06-22T17:28:31.853Z,2.57
2018-06-22T17:31:01.253Z,1.90
2018-06-22T17:33:31.016Z,1.80
2018-06-22T17:36:01.412Z,2.40
2018-06-22T17:38:30.888Z,1.83
2018-06-22T17:41:00.381Z,1.90
2018-06-22T17:43:32.389Z,2.27
2018-06-22T17:46:02.004Z,1.97
2018-06-22T17:48:31.515Z,1.73
2018-06-22T17:51:01.448Z,1.70
2018-06-22T17:53:31.036Z,2.33
2018-06-22T17:56:00.519Z,2.10
2018-06-22T17:58:30.703Z,2.17
2018-06-22T18:01:05.410Z,1.80
2018-06-22T18:03:40.898Z,2.20
2018-06-22T18:06:15.620Z,2.33
2018-06-22T18:08:48.074Z,2.07
2018-06-22T18:11:22.793Z,1.80
2018-06-22T18:13:52.928Z,3.13
2018-06-22T18:16:22.430Z,1.97
2018-06-22T18:18:53.612Z,1.97
2018-06-22T18:21:23.056Z,2.07
2018-06-22T18:23:52.620Z,3.10
2018-06-22T18:26:23.017Z,2.00
2018-06-22T18:28:52.476Z,1.80
2018-06-22T18:31:22.000Z,2.10
2018-06-22T18:33:52.777Z,1.90
2018-06-22T18:36:22.259Z,1.93
2018-06-22T18:38:51.763Z,1.70
2018-06-22T18:41:21.717Z,1.70
2018-06-22T18:43:56.579Z,2.07
2018-06-22T18:46:27.990Z,2.17
2018-06-22T18:48:57.451Z,2.13
2018-06-22T18:51:27.252Z,2.03
2018-06-22T18:55:05.747Z,1.90
2018-06-22T18:57:42.193Z,2.40
2018-06-22T19:00:17.425Z,2.27
2018-06-22T19:02:52.219Z,2.17
2018-06-22T19:05:23.855Z,1.97
2018-06-22T19:07:53.341Z,1.80
2018-06-22T19:10:22.859Z,1.80
2018-06-22T19:12:52.282Z,2.30
2018-06-22T19:15:23.181Z,2.40
2018-06-22T19:17:52.665Z,2.27
2018-06-22T19:20:22.237Z,2.20
2018-06-22T19:22:52.300Z,2.10
2018-06-22T19:25:21.774Z,2.30
2018-06-22T19:27:51.253Z,2.00
2018-06-22T19:30:21.874Z,2.60
2018-06-22T19:32:51.395Z,2.20
2018-06-22T19:35:20.867Z,2.43
2018-06-22T19:37:50.906Z,2.10
2018-06-22T19:40:20.446Z,2.10
2018-06-22T19:42:49.980Z,2.60
2018-06-22T19:45:26.480Z,2.20
2018-06-22T19:48:01.359Z,2.40
2018-06-22T19:50:36.544Z,2.27
2018-06-22T19:53:11.376Z,2.20
2018-06-22T19:55:40.874Z,2.73
2018-06-22T19:58:10.953Z,2.97
2018-06-22T20:00:40.470Z,2.43
2018-06-22T20:03:09.947Z,2.63
2018-06-22T20:05:40.302Z,2.70
2018-06-22T20:08:09.763Z,2.73
2018-06-22T20:10:40.079Z,3.00
2018-06-22T20:13:09.673Z,3.00
2018-06-22T20:15:39.195Z,2.50
2018-06-22T20:18:09.024Z,2.90
2018-06-22T20:20:38.536Z,2.63
2018-06-22T20:23:10.403Z,2.40
2018-06-22T20:25:44.875Z,3.37
2018-06-22T20:28:17.420Z,2.87
2018-06-22T20:30:47.793Z,3.43
2018-06-22T20:33:19.368Z,2.67
2018-06-22T20:35:54.241Z,2.73
2018-06-22T20:38:29.531Z,2.50
2018-06-22T20:41:04.166Z,2.80
2018-06-22T20:43:39.647Z,3.00
2018-06-22T20:46:09.985Z,2.90
2018-06-22T20:48:46.288Z,2.77
2018-06-22T20:51:15.823Z,2.60
2018-06-22T20:53:45.344Z,2.83
2018-06-22T20:56:15.736Z,2.60
2018-06-22T20:58:45.156Z,3.20
2018-06-22T21:01:14.653Z,3.10
2018-06-22T21:03:44.752Z,2.93
2018-06-22T21:06:14.324Z,2.97
2018-06-22T21:08:44.995Z,2.73
2018-06-22T21:11:14.763Z,2.57
2018-06-22T21:13:45.644Z,3.00
2018-06-22T21:16:16.467Z,2.60
2018-06-22T21:18:46.702Z,2.90
2018-06-22T21:21:21.779Z,3.30
2018-06-22T21:23:52.667Z,2.90
2018-06-22T21:26:22.527Z,3.50
2018-06-22T21:28:58.888Z,3.20
2018-06-22T21:32:37.942Z,3.43
2018-06-22T21:35:13.861Z,3.10
2018-06-22T21:37:49.430Z,3.10
2018-06-22T21:40:21.327Z,2.77
2018-06-22T21:42:51.925Z,2.70
2018-06-22T21:45:22.907Z,3.10
2018-06-22T21:47:54.069Z,2.53
2018-06-22T21:50:24.021Z,3.37
2018-06-22T21:52:53.630Z,3.73
2018-06-22T21:55:23.075Z,3.10
2018-06-22T21:57:53.273Z,2.90
2018-06-22T22:00:28.057Z,3.00
2018-06-22T22:02:59.885Z,3.60
2018-06-22T22:05:30.130Z,3.43
2018-06-22T22:08:00.439Z,3.13
2018-06-22T22:10:41.888Z,2.67
2018-06-22T22:13:12.357Z,2.53
2018-06-22T22:15:41.838Z,3.00
2018-06-22T22:18:11.315Z,3.10
2018-06-22T22:20:41.507Z,2.57
2018-06-22T22:23:11.044Z,3.20
2018-06-22T22:25:40.475Z,2.90
2018-06-22T22:28:10.517Z,3.40
2018-06-22T22:30:40.021Z,3.83
2018-06-22T22:33:09.494Z,2.87
2018-06-22T22:35:39.402Z,3.10
2018-06-22T22:38:08.897Z,3.17
2018-06-22T22:40:38.394Z,3.70
2018-06-22T22:43:08.891Z,3.70
2018-06-22T22:45:38.351Z,3.90
2018-06-22T22:48:09.243Z,3.37
2018-06-22T22:50:38.787Z,3.43
2018-06-22T22:53:08.265Z,3.53
2018-06-22T22:55:38.186Z,3.70
2018-06-22T22:58:07.735Z,3.43
2018-06-22T23:00:37.245Z,3.87
2018-06-22T23:03:07.431Z,3.50
2018-06-22T23:05:36.929Z,3.60
2018-06-22T23:08:07.799Z,4.40
2018-06-22T23:10:37.289Z,4.10
2018-06-22T23:13:06.759Z,4.20
2018-06-22T23:15:36.716Z,3.80
2018-06-22T23:18:06.341Z,4.13
2018-06-22T23:20:35.843Z,3.70
2018-06-22T23:23:17.323Z,3.90
2018-06-22T23:25:46.809Z,4.20
2018-06-22T23:28:16.331Z,4.20
2018-06-22T23:30:46.260Z,3.40
2018-06-22T23:33:15.694Z,3.90
2018-06-22T23:35:45.231Z,3.90
2018-06-22T23:38:15.198Z,4.63
2018-06-22T23:40:44.674Z,4.63
2018-06-22T23:43:13.773Z,5.00
2018-06-22T23:45:44.038Z,4.10
2018-06-22T23:48:14.744Z,4.27
2018-06-22T23:50:44.970Z,5.00
2018-06-22T23:53:14.466Z,4.20
2018-06-22T23:55:44.037Z,3.97
2018-06-22T23:58:13.916Z,3.67
